Time;durP1;ratioP1;P1;durP2;ratioP2;P2;SDS_P1;SDS_P2;PMS_P1;PMS_P2;Temp;Humidity;BMP_temperature;BMP_pressure;BME280_temperature;BME280_humidity;BME280_pressure;Samples;Min_cycle;Max_cycle;Signal;HPM_P1;HPM_P2
2022/03/06 00:00:10;;;;;;;20.95;4.35;;;23.00;99.90;;;;;;5010333;28;20030;-68
2022/03/06 00:02:37;;;;;;;25.38;4.70;;;23.00;99.90;;;;;;5010866;28;20458;-68
2022/03/06 00:05:06;;;;;;;27.80;4.43;;;23.10;99.90;;;;;;5014558;28;20092;-67
2022/03/06 00:07:33;;;;;;;21.63;4.88;;;23.10;99.90;;;;;;5013565;28;20077;-65
2022/03/06 00:10:01;;;;;;;22.25;3.45;;;23.10;99.90;;;;;;5014265;28;20089;-66
2022/03/06 00:12:28;;;;;;;22.25;3.72;;;23.10;99.90;;;;;;5012299;28;20026;-67
2022/03/06 00:14:56;;;;;;;16.73;3.90;;;23.10;99.90;;;;;;5012787;28;20029;-70
2022/03/06 00:17:23;;;;;;;26.48;4.70;;;23.20;99.90;;;;;;5013748;28;20049;-66
2022/03/06 00:19:50;;;;;;;22.95;4.95;;;23.20;99.90;;;;;;5014769;28;20026;-66
2022/03/06 00:22:17;;;;;;;18.88;4.50;;;23.20;99.90;;;;;;5013117;28;20025;-65
2022/03/06 00:24:45;;;;;;;21.65;4.25;;;23.30;99.90;;;;;;5013966;28;20026;-68
2022/03/06 00:27:12;;;;;;;27.45;4.18;;;23.30;99.90;;;;;;5013204;28;20046;-65
2022/03/06 00:29:40;;;;;;;23.33;4.00;;;23.30;99.90;;;;;;5013951;28;20036;-68
2022/03/06 00:32:07;;;;;;;24.33;3.83;;;23.30;99.90;;;;;;5010634;28;20057;-69
2022/03/06 00:34:35;;;;;;;25.58;5.25;;;23.40;99.90;;;;;;5012532;28;20033;-71
2022/03/06 00:37:04;;;;;;;20.73;4.13;;;23.40;99.90;;;;;;5013261;28;20037;-67
2022/03/06 00:39:31;;;;;;;26.63;5.53;;;23.40;99.90;;;;;;5012676;28;20065;-67
2022/03/06 00:41:59;;;;;;;21.58;4.03;;;23.30;99.90;;;;;;5014069;28;20347;-66
2022/03/06 00:44:26;;;;;;;19.73;5.95;;;23.40;99.90;;;;;;5014787;28;20474;-69
2022/03/06 00:46:53;;;;;;;16.42;4.07;;;23.40;99.90;;;;;;5014906;28;20112;-67
2022/03/06 00:49:20;;;;;;;16.42;3.33;;;23.50;99.90;;;;;;5013215;28;20084;-68
2022/03/06 00:51:48;;;;;;;23.38;4.05;;;23.60;99.90;;;;;;5011183;28;20104;-67
2022/03/06 00:54:15;;;;;;;16.48;3.22;;;23.70;99.90;;;;;;5010952;28;20039;-70
2022/03/06 00:56:42;;;;;;;18.48;4.35;;;23.90;99.90;;;;;;5011101;28;20026;-69
2022/03/06 00:59:10;;;;;;;12.23;2.92;;;24.20;99.90;;;;;;5011768;28;20084;-69
2022/03/06 01:01:37;;;;;;;16.73;3.63;;;24.30;99.90;;;;;;5012852;28;20018;-71
2022/03/06 01:04:04;;;;;;;12.27;4.00;;;24.40;99.90;;;;;;5013565;28;20017;-68
2022/03/06 01:06:32;;;;;;;10.20;4.28;;;24.40;99.90;;;;;;5013344;28;20424;-71
2022/03/06 01:09:00;;;;;;;8.98;2.63;;;24.40;99.90;;;;;;5014063;28;20478;-69
2022/03/06 01:11:27;;;;;;;11.40;3.33;;;24.40;99.90;;;;;;5012965;28;20097;-67
2022/03/06 01:13:54;;;;;;;9.43;3.38;;;24.40;99.90;;;;;;5014192;28;20061;-70
2022/03/06 01:16:21;;;;;;;11.90;4.38;;;24.30;99.90;;;;;;5012668;28;20026;-69
2022/03/06 01:18:49;;;;;;;10.95;5.55;;;24.20;99.90;;;;;;5014003;28;20026;-71
2022/03/06 01:21:16;;;;;;;15.75;4.55;;;24.20;99.90;;;;;;5013870;28;20441;-68
2022/03/06 01:23:43;;;;;;;7.57;2.00;;;24.00;99.90;;;;;;5013723;28;20022;-69
2022/03/06 01:26:11;;;;;;;11.07;4.10;;;23.90;99.90;;;;;;5013530;28;20408;-71
2022/03/06 01:28:38;;;;;;;11.75;3.83;;;23.80;99.90;;;;;;5013863;28;20519;-68
2022/03/06 01:31:06;;;;;;;9.18;2.30;;;23.90;99.90;;;;;;5013796;28;20144;-68
2022/03/06 01:33:33;;;;;;;10.93;2.85;;;24.00;99.90;;;;;;5012520;28;20037;-71
2022/03/06 01:36:00;;;;;;;12.88;3.60;;;24.10;99.90;;;;;;5013735;28;20021;-69
2022/03/06 01:38:28;;;;;;;13.82;3.58;;;24.30;99.90;;;;;;5013772;28;20029;-69
2022/03/06 01:40:55;;;;;;;16.23;3.13;;;24.40;99.90;;;;;;5013909;28;20025;-68
2022/03/06 01:43:23;;;;;;;9.02;3.22;;;24.50;99.90;;;;;;5013533;28;20061;-69
2022/03/06 01:45:50;;;;;;;13.40;4.32;;;24.70;99.90;;;;;;5013466;28;20026;-69
2022/03/06 01:48:17;;;;;;;13.48;4.28;;;24.60;99.90;;;;;;5009973;28;20063;-70
2022/03/06 01:50:45;;;;;;;12.75;4.70;;;24.70;99.90;;;;;;5003484;28;20022;-66
2022/03/06 01:53:12;;;;;;;10.50;3.00;;;24.80;99.90;;;;;;4995971;28;20512;-67
2022/03/06 01:55:42;;;;;;;9.95;4.05;;;24.80;99.90;;;;;;5011321;28;20018;-66
2022/03/06 01:58:12;;;;;;;12.52;4.07;;;24.80;99.90;;;;;;5012803;28;20101;-68
2022/03/06 02:00:45;;;;;;;11.85;2.65;;;25.00;99.90;;;;;;5013565;28;20125;-67
2022/03/06 02:03:14;;;;;;;13.30;3.53;;;25.20;99.90;;;;;;5013354;28;20084;-67
2022/03/06 02:05:43;;;;;;;12.18;3.97;;;25.10;99.90;;;;;;5013146;28;20084;-69
2022/03/06 02:08:11;;;;;;;11.30;2.58;;;25.10;99.90;;;;;;5011743;28;20046;-68
2022/03/06 02:10:39;;;;;;;10.52;2.60;;;25.20;99.90;;;;;;5012758;28;20076;-66
2022/03/06 02:13:07;;;;;;;9.70;2.75;;;25.30;99.90;;;;;;5012404;28;20080;-67
2022/03/06 02:15:34;;;;;;;7.53;2.70;;;25.40;99.90;;;;;;5010701;28;20049;-68
2022/03/06 02:18:02;;;;;;;13.30;2.33;;;25.50;99.90;;;;;;5010165;28;20026;-71
2022/03/06 02:20:30;;;;;;;8.65;2.38;;;25.50;99.90;;;;;;5011364;28;20030;-73
2022/03/06 02:22:58;;;;;;;10.82;1.98;;;25.60;99.90;;;;;;5011415;28;20022;-70
2022/03/06 02:25:29;;;;;;;6.53;2.33;;;25.50;99.90;;;;;;5011162;28;20021;-68
2022/03/06 02:27:59;;;;;;;7.63;2.10;;;25.50;99.90;;;;;;5011501;28;20072;-72
2022/03/06 02:30:32;;;;;;;7.45;2.22;;;25.30;99.90;;;;;;5012696;28;20022;-70
2022/03/06 02:33:02;;;;;;;9.55;2.65;;;25.10;99.90;;;;;;5012662;28;20026;-72
2022/03/06 02:35:30;;;;;;;13.20;4.20;;;25.00;99.90;;;;;;5012564;28;20071;-73
2022/03/06 02:37:58;;;;;;;13.85;3.92;;;24.90;99.90;;;;;;5012528;28;20482;-70
2022/03/06 02:40:26;;;;;;;11.10;5.20;;;24.90;99.90;;;;;;5011475;28;20112;-72
2022/03/06 02:42:55;;;;;;;14.02;3.97;;;24.80;99.90;;;;;;5009091;28;20397;-71
2022/03/06 02:45:27;;;;;;;11.00;2.95;;;24.80;99.90;;;;;;5012587;28;20443;-69
2022/03/06 02:47:56;;;;;;;8.23;3.42;;;24.80;99.90;;;;;;5006286;28;20034;-67
2022/03/06 02:50:30;;;;;;;9.07;2.83;;;24.90;99.90;;;;;;5006284;28;20482;-72
2022/03/06 02:53:00;;;;;;;11.63;3.17;;;24.90;99.90;;;;;;4992470;28;20540;-68
2022/03/06 02:55:28;;;;;;;12.05;3.25;;;24.90;99.90;;;;;;4992308;28;20101;-70
2022/03/06 02:57:57;;;;;;;9.82;2.65;;;24.90;99.90;;;;;;4992097;28;20034;-71
2022/03/06 03:00:26;;;;;;;7.40;2.10;;;24.90;99.90;;;;;;4992183;28;20153;-68
2022/03/06 03:02:56;;;;;;;7.15;1.95;;;24.90;99.90;;;;;;4991926;28;20034;-69
2022/03/06 03:05:25;;;;;;;12.88;3.53;;;24.80;99.90;;;;;;4988400;28;20031;-67
2022/03/06 03:07:53;;;;;;;12.68;3.47;;;24.70;99.90;;;;;;4987881;28;20069;-71
2022/03/06 03:10:22;;;;;;;9.63;2.80;;;24.60;99.90;;;;;;4988139;28;20061;-70
2022/03/06 03:12:50;;;;;;;9.30;3.58;;;24.40;99.90;;;;;;4989970;28;20054;-67
2022/03/06 03:15:18;;;;;;;12.27;4.75;;;24.30;99.90;;;;;;4992200;28;20356;-67
2022/03/06 03:17:46;;;;;;;8.25;2.30;;;24.30;99.90;;;;;;4992193;28;20451;-70
2022/03/06 03:20:14;;;;;;;6.72;2.88;;;24.30;99.90;;;;;;4992056;28;20041;-70
2022/03/06 03:22:43;;;;;;;7.28;2.15;;;24.30;99.90;;;;;;4990354;28;20475;-69
2022/03/06 03:25:11;;;;;;;7.82;2.35;;;24.20;99.90;;;;;;4989566;28;20113;-68
2022/03/06 03:27:39;;;;;;;8.50;2.10;;;24.00;99.90;;;;;;4991418;28;20421;-69
2022/03/06 03:30:07;;;;;;;10.95;2.80;;;23.80;99.90;;;;;;4990342;28;20217;-69
2022/03/06 03:32:35;;;;;;;11.35;3.15;;;23.80;99.90;;;;;;4990497;28;20101;-69
2022/03/06 03:35:03;;;;;;;13.38;4.10;;;23.80;99.90;;;;;;4990497;28;20081;-70
2022/03/06 03:37:30;;;;;;;6.70;2.63;;;23.90;99.90;;;;;;4990202;28;20023;-69
2022/03/06 03:39:57;;;;;;;7.35;2.90;;;23.90;99.90;;;;;;4994387;28;20466;-69
2022/03/06 03:42:25;;;;;;;11.65;2.15;;;24.00;99.90;;;;;;4994300;28;20030;-69
2022/03/06 03:44:52;;;;;;;6.95;2.28;;;24.00;99.90;;;;;;4995959;28;20022;-67
2022/03/06 03:47:19;;;;;;;11.68;2.85;;;24.10;99.90;;;;;;4996506;28;20518;-70
2022/03/06 03:49:47;;;;;;;10.48;2.67;;;24.10;99.90;;;;;;4996536;28;20065;-68
2022/03/06 03:52:14;;;;;;;13.02;3.03;;;24.20;99.90;;;;;;4996309;28;20022;-69
2022/03/06 03:54:44;;;;;;;13.57;3.60;;;24.20;99.90;;;;;;4995812;28;20038;-69
2022/03/06 03:57:13;;;;;;;11.32;4.28;;;24.50;99.90;;;;;;4995677;28;20027;-70
2022/03/06 03:59:41;;;;;;;8.07;3.05;;;24.90;99.90;;;;;;4995915;28;20026;-67
2022/03/06 04:02:08;;;;;;;12.20;3.35;;;25.20;99.90;;;;;;4996002;28;20025;-69
2022/03/06 04:04:36;;;;;;;11.77;2.80;;;25.30;99.90;;;;;;4996019;28;20026;-68
2022/03/06 04:07:03;;;;;;;9.57;3.13;;;25.30;99.90;;;;;;4995909;28;20310;-67
2022/03/06 04:09:30;;;;;;;11.18;2.65;;;25.10;99.90;;;;;;4995332;28;20129;-67
2022/03/06 04:11:58;;;;;;;13.82;2.72;;;24.90;99.90;;;;;;4995619;28;20097;-66
2022/03/06 04:14:25;;;;;;;9.50;2.63;;;24.70;99.90;;;;;;4995847;28;20050;-68
2022/03/06 04:16:52;;;;;;;11.77;2.40;;;24.50;99.90;;;;;;4995256;28;20029;-66
2022/03/06 04:19:20;;;;;;;7.82;3.05;;;24.20;99.90;;;;;;4995263;28;20160;-66
2022/03/06 04:21:47;;;;;;;13.02;5.00;;;24.00;99.90;;;;;;4995552;28;20068;-70
2022/03/06 04:24:14;;;;;;;9.93;5.00;;;23.80;99.90;;;;;;4995980;28;20105;-67
2022/03/06 04:26:42;;;;;;;9.73;5.55;;;23.50;99.90;;;;;;4995425;28;20023;-69
2022/03/06 04:29:09;;;;;;;10.57;4.25;;;23.40;99.90;;;;;;4995734;28;20027;-67
2022/03/06 04:31:36;;;;;;;10.50;4.65;;;23.20;99.90;;;;;;4995403;28;20049;-67
2022/03/06 04:34:04;;;;;;;12.13;3.08;;;23.10;99.90;;;;;;4995227;28;20019;-68
2022/03/06 04:36:31;;;;;;;13.25;3.35;;;22.90;99.90;;;;;;4994738;28;20383;-68
2022/03/06 04:38:58;;;;;;;12.25;2.92;;;22.80;99.90;;;;;;4995374;28;20138;-67
2022/03/06 04:41:26;;;;;;;12.38;3.00;;;22.80;99.90;;;;;;4995258;28;20105;-69
2022/03/06 04:43:53;;;;;;;10.85;2.47;;;22.80;99.90;;;;;;4994717;28;20031;-67
2022/03/06 04:46:21;;;;;;;11.73;2.70;;;22.70;99.90;;;;;;4994561;28;20112;-69
2022/03/06 04:48:48;;;;;;;10.98;4.50;;;22.70;99.90;;;;;;4993999;28;20022;-68
2022/03/06 04:51:16;;;;;;;12.48;3.58;;;22.60;99.90;;;;;;4994062;28;20101;-70
2022/03/06 04:53:43;;;;;;;7.80;2.60;;;22.60;99.90;;;;;;4994771;28;20141;-69
2022/03/06 04:56:11;;;;;;;9.45;2.80;;;22.60;99.90;;;;;;4995032;28;20054;-68
2022/03/06 04:58:38;;;;;;;9.98;3.22;;;22.60;99.90;;;;;;4995199;28;20449;-69
2022/03/06 05:01:06;;;;;;;9.57;2.45;;;22.60;99.90;;;;;;4994369;28;20025;-70
2022/03/06 05:03:34;;;;;;;6.95;2.45;;;22.60;99.90;;;;;;4994327;28;20382;-69
2022/03/06 05:06:01;;;;;;;9.77;2.05;;;22.60;99.90;;;;;;4994263;28;20121;-66
2022/03/06 05:08:28;;;;;;;8.32;1.73;;;22.60;99.90;;;;;;4994468;28;20088;-67
2022/03/06 05:10:56;;;;;;;6.60;1.50;;;22.60;99.90;;;;;;4994561;28;20071;-68
2022/03/06 05:13:24;;;;;;;9.55;2.53;;;22.60;99.90;;;;;;4994563;28;20359;-68
2022/03/06 05:15:53;;;;;;;7.47;2.13;;;22.60;99.90;;;;;;4994532;28;20053;-67
2022/03/06 05:18:20;;;;;;;10.98;2.20;;;22.70;99.90;;;;;;4993283;28;20044;-71
2022/03/06 05:20:48;;;;;;;9.25;2.30;;;22.70;99.90;;;;;;4994238;28;20475;-66
2022/03/06 05:23:17;;;;;;;7.35;2.47;;;22.80;99.90;;;;;;4994513;28;20031;-67
2022/03/06 05:25:45;;;;;;;10.32;3.70;;;22.80;99.90;;;;;;4994478;28;20499;-69
2022/03/06 05:28:13;;;;;;;10.90;5.40;;;23.00;99.90;;;;;;4994737;28;20109;-69
2022/03/06 05:30:41;;;;;;;16.02;5.95;;;23.10;99.90;;;;;;4994352;28;20077;-67
2022/03/06 05:33:08;;;;;;;7.95;3.55;;;23.10;99.90;;;;;;4993935;28;20018;-71
2022/03/06 05:35:35;;;;;;;10.18;2.88;;;23.20;99.90;;;;;;5008971;28;20033;-69
2022/03/06 05:38:03;;;;;;;11.45;3.58;;;23.30;99.90;;;;;;4994288;28;20096;-72
2022/03/06 05:40:30;;;;;;;8.43;3.00;;;23.50;99.90;;;;;;4993912;28;20026;-71
2022/03/06 05:42:58;;;;;;;6.07;2.33;;;23.60;99.90;;;;;;4993868;28;20069;-68
2022/03/06 05:45:25;;;;;;;5.68;4.00;;;23.70;99.90;;;;;;4993967;28;20022;-67
2022/03/06 05:47:52;;;;;;;8.55;3.17;;;23.70;99.90;;;;;;4993831;28;20152;-67
2022/03/06 05:50:20;;;;;;;10.98;4.72;;;23.80;99.90;;;;;;4993885;28;20022;-67
2022/03/06 05:52:50;;;;;;;13.93;5.40;;;23.80;99.90;;;;;;4994021;28;20109;-65
2022/03/06 05:55:18;;;;;;;10.32;3.85;;;23.80;99.90;;;;;;4993520;28;20379;-71
2022/03/06 05:57:45;;;;;;;7.47;3.38;;;23.90;99.90;;;;;;4993679;28;20494;-69
2022/03/06 06:00:16;;;;;;;10.52;4.22;;;23.90;99.90;;;;;;4993439;28;20026;-71
2022/03/06 06:02:44;;;;;;;10.65;3.65;;;23.90;99.90;;;;;;4993865;28;20037;-67
2022/03/06 06:05:12;;;;;;;10.05;3.85;;;24.00;99.90;;;;;;4993731;28;20053;-67
2022/03/06 06:07:39;;;;;;;11.73;4.22;;;24.00;99.90;;;;;;4992947;28;20042;-66
2022/03/06 06:10:07;;;;;;;10.48;4.60;;;24.10;99.90;;;;;;4993726;28;20512;-66
2022/03/06 06:12:34;;;;;;;10.90;4.82;;;24.10;99.90;;;;;;4993396;28;20378;-69
2022/03/06 06:15:02;;;;;;;13.18;5.10;;;24.10;99.90;;;;;;4993444;28;20030;-68
2022/03/06 06:17:29;;;;;;;10.15;5.35;;;24.20;99.90;;;;;;5004316;28;20080;-71
2022/03/06 06:19:57;;;;;;;13.27;5.82;;;24.20;99.90;;;;;;5008216;28;20030;-69
2022/03/06 06:22:24;;;;;;;11.95;3.78;;;24.30;99.90;;;;;;4992994;28;20423;-69
2022/03/06 06:24:52;;;;;;;15.10;3.75;;;24.30;99.90;;;;;;4991613;28;20085;-67
2022/03/06 06:27:19;;;;;;;10.98;3.03;;;24.50;99.90;;;;;;4992761;28;20085;-67
2022/03/06 06:29:46;;;;;;;13.40;3.45;;;24.60;99.90;;;;;;4993209;28;20022;-67
2022/03/06 06:32:14;;;;;;;13.10;2.97;;;24.80;99.90;;;;;;4993096;28;20025;-70
2022/03/06 06:34:41;;;;;;;11.85;2.50;;;24.90;99.90;;;;;;4992566;28;20023;-68
2022/03/06 06:37:08;;;;;;;14.82;4.07;;;24.90;99.90;;;;;;4992736;28;20018;-68
2022/03/06 06:39:38;;;;;;;13.10;6.32;;;24.80;99.90;;;;;;4992701;28;20414;-68
2022/03/06 06:42:06;;;;;;;17.30;6.70;;;24.70;99.90;;;;;;4993019;28;20037;-67
2022/03/06 06:44:34;;;;;;;12.02;6.43;;;24.70;99.90;;;;;;4993326;28;20050;-68
2022/03/06 06:47:02;;;;;;;14.77;4.43;;;24.70;99.90;;;;;;4993131;28;20058;-68
2022/03/06 06:49:29;;;;;;;13.93;3.30;;;24.60;99.90;;;;;;4993042;28;20105;-66
2022/03/06 06:51:57;;;;;;;11.07;3.00;;;24.60;99.90;;;;;;4992574;28;20056;-67
2022/03/06 06:54:24;;;;;;;13.75;3.13;;;24.70;99.90;;;;;;4991017;28;20475;-69
2022/03/06 06:56:51;;;;;;;13.50;2.67;;;24.80;99.90;;;;;;4990725;28;20027;-69
2022/03/06 06:59:18;;;;;;;10.02;2.08;;;25.00;99.90;;;;;;4990721;28;20038;-68
2022/03/06 07:01:46;;;;;;;9.23;3.65;;;25.10;99.90;;;;;;4991129;28;20458;-72
2022/03/06 07:04:13;;;;;;;12.85;3.78;;;25.30;99.90;;;;;;4991126;28;20030;-67
2022/03/06 07:06:40;;;;;;;10.63;3.78;;;25.40;99.90;;;;;;4991451;28;20018;-73
2022/03/06 07:09:08;;;;;;;11.63;4.32;;;25.50;99.90;;;;;;4991850;28;20046;-68
2022/03/06 07:11:35;;;;;;;14.80;3.17;;;25.50;99.90;;;;;;4992999;28;20038;-68
2022/03/06 07:14:02;;;;;;;8.18;2.90;;;25.50;99.90;;;;;;4992059;28;20019;-67
2022/03/06 07:16:29;;;;;;;9.68;2.17;;;25.60;99.90;;;;;;4992258;28;20027;-70
2022/03/06 07:18:57;;;;;;;10.05;2.50;;;25.80;99.90;;;;;;4992244;28;20069;-69
2022/03/06 07:21:24;;;;;;;9.55;2.35;;;25.80;99.90;;;;;;4992411;28;20495;-73
2022/03/06 07:23:51;;;;;;;10.38;2.85;;;25.70;99.90;;;;;;4992425;28;20054;-68
2022/03/06 07:26:19;;;;;;;12.43;3.78;;;25.60;99.90;;;;;;4992684;28;20045;-66
2022/03/06 07:28:46;;;;;;;11.02;2.90;;;25.50;99.90;;;;;;4992680;28;20026;-66
2022/03/06 07:31:13;;;;;;;9.85;4.07;;;25.30;99.90;;;;;;4992564;28;20019;-70
2022/03/06 07:33:41;;;;;;;16.50;8.02;;;25.20;99.90;;;;;;4992425;28;20019;-70
2022/03/06 07:36:08;;;;;;;14.27;6.68;;;25.10;99.90;;;;;;4992388;28;20026;-67
2022/03/06 07:38:35;;;;;;;13.95;3.92;;;25.00;99.90;;;;;;4992334;28;20040;-71
2022/03/06 07:41:03;;;;;;;13.80;3.30;;;24.90;99.90;;;;;;4991055;28;20030;-68
2022/03/06 07:43:30;;;;;;;10.68;4.28;;;24.80;99.90;;;;;;4991948;28;20117;-67
2022/03/06 07:45:57;;;;;;;13.98;4.07;;;24.70;99.90;;;;;;4991706;28;20014;-68
2022/03/06 07:48:25;;;;;;;16.85;4.70;;;24.60;99.90;;;;;;4992098;28;20030;-70
2022/03/06 07:50:52;;;;;;;17.55;6.25;;;24.50;99.90;;;;;;4992281;28;20050;-69
2022/03/06 07:53:19;;;;;;;15.20;6.13;;;24.40;99.90;;;;;;4992111;28;20025;-67
2022/03/06 07:55:46;;;;;;;12.25;4.25;;;24.30;99.90;;;;;;4991972;28;20018;-69
2022/03/06 07:58:14;;;;;;;16.65;4.60;;;24.30;99.90;;;;;;4992184;28;20045;-69
2022/03/06 08:00:41;;;;;;;15.98;3.92;;;24.20;99.90;;;;;;4992271;28;20093;-68
2022/03/06 08:03:08;;;;;;;17.20;5.43;;;24.10;99.90;;;;;;4992231;28;20025;-67
2022/03/06 08:05:36;;;;;;;16.60;4.32;;;24.10;99.90;;;;;;4992002;28;20034;-70
2022/03/06 08:08:03;;;;;;;12.52;3.83;;;24.10;99.90;;;;;;4991733;28;20038;-67
2022/03/06 08:10:31;;;;;;;20.73;6.03;;;24.00;99.90;;;;;;4991928;28;20023;-70
2022/03/06 08:12:58;;;;;;;15.60;4.07;;;24.00;99.90;;;;;;4990830;28;20034;-69
2022/03/06 08:15:26;;;;;;;12.10;5.38;;;23.90;99.90;;;;;;4991972;28;20490;-71
2022/03/06 08:17:53;;;;;;;9.65;4.68;;;23.80;99.90;;;;;;4991788;28;20073;-70
2022/03/06 08:20:20;;;;;;;9.18;3.83;;;23.60;99.90;;;;;;4992126;28;20038;-70
2022/03/06 08:22:48;;;;;;;10.85;3.50;;;23.50;99.90;;;;;;4991972;28;20023;-67
2022/03/06 08:25:15;;;;;;;10.75;3.20;;;23.50;99.90;;;;;;4994586;28;20052;-68
2022/03/06 08:27:42;;;;;;;15.07;3.70;;;23.40;99.90;;;;;;4995502;28;20450;-70
2022/03/06 08:30:10;;;;;;;15.07;3.92;;;23.40;99.90;;;;;;4995252;28;20671;-69
2022/03/06 08:32:39;;;;;;;17.77;4.65;;;23.40;99.90;;;;;;4995139;28;20057;-68
2022/03/06 08:35:08;;;;;;;19.23;3.72;;;23.40;99.90;;;;;;4995069;28;20498;-69
2022/03/06 08:37:36;;;;;;;16.65;3.33;;;23.40;99.90;;;;;;4994927;28;20034;-69
2022/03/06 08:40:05;;;;;;;13.23;3.70;;;23.50;99.90;;;;;;4994740;28;20027;-68
2022/03/06 08:42:33;;;;;;;16.45;3.88;;;23.40;99.90;;;;;;4994479;28;20528;-67
2022/03/06 08:45:00;;;;;;;19.05;5.70;;;23.40;99.90;;;;;;4994766;28;20029;-69
2022/03/06 08:47:27;;;;;;;22.98;7.47;;;23.40;99.90;;;;;;4994525;28;20022;-68
2022/03/06 08:49:54;;;;;;;22.05;5.78;;;23.40;99.90;;;;;;5002012;28;20026;-71
2022/03/06 08:52:22;;;;;;;21.85;5.20;;;23.40;99.90;;;;;;5013784;28;20036;-73
2022/03/06 08:54:49;;;;;;;18.73;5.13;;;23.40;99.90;;;;;;5013490;28;20034;-68
2022/03/06 08:57:16;;;;;;;20.42;5.05;;;23.40;99.90;;;;;;5013460;28;20022;-73
2022/03/06 08:59:44;;;;;;;28.25;5.55;;;23.40;99.90;;;;;;5013669;28;20089;-69
2022/03/06 09:02:11;;;;;;;23.15;4.03;;;23.40;99.90;;;;;;5013256;28;20455;-68
2022/03/06 09:04:38;;;;;;;24.38;3.55;;;23.40;99.90;;;;;;5013880;28;20049;-69
2022/03/06 09:07:06;;;;;;;21.23;4.45;;;23.40;99.90;;;;;;5013520;28;20032;-73
2022/03/06 09:09:33;;;;;;;17.38;3.08;;;23.50;99.90;;;;;;5013351;28;20513;-70
2022/03/06 09:12:00;;;;;;;20.23;4.13;;;23.50;99.90;;;;;;5014066;28;20481;-72
2022/03/06 09:14:28;;;;;;;16.40;3.22;;;23.50;99.90;;;;;;5014439;28;20068;-68
2022/03/06 09:16:55;;;;;;;22.42;5.28;;;23.50;99.90;;;;;;5013172;28;20066;-70
2022/03/06 09:19:23;;;;;;;20.38;3.35;;;23.40;99.90;;;;;;5013900;28;20485;-69
2022/03/06 09:21:50;;;;;;;26.30;3.67;;;23.40;99.90;;;;;;5014243;28;20053;-72
2022/03/06 09:24:18;;;;;;;17.35;3.38;;;23.40;99.90;;;;;;5014076;28;20022;-75
2022/03/06 09:26:47;;;;;;;17.15;2.95;;;23.30;99.90;;;;;;5013531;28;20056;-71
2022/03/06 09:29:14;;;;;;;20.98;3.00;;;23.30;99.90;;;;;;5013686;28;20105;-72
2022/03/06 09:31:43;;;;;;;18.40;2.92;;;23.20;99.90;;;;;;5013724;28;20030;-70
2022/03/06 09:34:10;;;;;;;18.38;3.22;;;23.20;99.90;;;;;;5013840;28;20041;-70
2022/03/06 09:36:38;;;;;;;24.63;2.55;;;23.20;99.90;;;;;;5013057;28;20030;-72
2022/03/06 09:39:06;;;;;;;22.48;3.80;;;23.20;99.90;;;;;;5013584;28;20030;-72
2022/03/06 09:41:40;;;;;;;25.33;4.15;;;23.20;99.90;;;;;;5013242;28;20022;-73
2022/03/06 09:44:09;;;;;;;19.05;3.35;;;23.20;99.90;;;;;;5013075;28;20030;-72
2022/03/06 09:46:38;;;;;;;21.05;3.38;;;23.10;99.90;;;;;;5013072;28;20025;-68
2022/03/06 09:49:07;;;;;;;17.42;2.92;;;23.10;99.90;;;;;;5013081;28;20637;-67
2022/03/06 09:51:42;;;;;;;12.38;2.10;;;23.10;99.90;;;;;;5013442;28;20057;-75
2022/03/06 09:54:12;;;;;;;14.93;2.17;;;23.10;99.90;;;;;;5013069;28;20521;-71
2022/03/06 09:56:40;;;;;;;14.32;3.15;;;23.10;99.90;;;;;;5013004;28;20061;-69
2022/03/06 09:59:07;;;;;;;20.80;3.97;;;23.00;99.90;;;;;;5013226;28;20034;-68
2022/03/06 10:01:35;;;;;;;16.27;2.25;;;23.00;99.90;;;;;;5013280;28;20100;-71
2022/03/06 10:04:46;;;;;;;15.55;3.22;;;23.00;99.90;;;;;;5013347;28;20156;-70
2022/03/06 10:07:17;;;;;;;20.80;3.53;;;23.10;99.90;;;;;;4990945;28;20120;-67
2022/03/06 10:09:46;;;;;;;21.00;3.97;;;23.10;99.90;;;;;;4989087;28;20387;-73
2022/03/06 10:12:33;;;;;;;18.75;3.20;;;23.10;99.90;;;;;;5001858;28;20263;-72
2022/03/06 10:15:06;;;;;;;18.02;3.05;;;23.20;99.90;;;;;;5013107;28;20037;-71
2022/03/06 10:17:35;;;;;;;17.95;2.97;;;23.20;99.90;;;;;;5012658;28;20014;-77
2022/03/06 10:20:06;;;;;;;24.02;3.05;;;23.20;99.90;;;;;;5012772;28;20056;-74
2022/03/06 10:22:38;;;;;;;17.77;3.93;;;23.20;99.90;;;;;;5012121;28;20072;-70
2022/03/06 10:25:06;;;;;;;;;;;23.20;99.90;;;;;;5012863;28;20030;-72
2022/03/06 10:27:54;;;;;;;12.90;2.70;;;23.20;99.90;;;;;;5012831;28;20297;-74
2022/03/06 10:30:35;;;;;;;18.92;2.45;;;23.20;99.90;;;;;;5012754;28;20025;-72
2022/03/06 10:33:05;;;;;;;9.70;1.50;;;23.20;99.90;;;;;;5012615;28;20667;-71
2022/03/06 10:35:51;;;;;;;14.25;2.25;;;23.20;99.90;;;;;;5012743;28;20037;-71
2022/03/06 10:38:29;;;;;;;7.82;2.30;;;23.20;99.90;;;;;;5012975;28;20038;-72
2022/03/06 10:41:11;;;;;;;17.48;3.20;;;23.20;99.90;;;;;;5012664;28;20433;-73
2022/03/06 10:43:38;;;;;;;13.50;2.72;;;23.20;99.90;;;;;;5012395;28;20105;-70
2022/03/06 10:46:12;;;;;;;14.43;2.60;;;23.20;99.90;;;;;;5012541;28;20064;-73
2022/03/06 10:48:44;;;;;;;13.63;2.10;;;23.20;99.90;;;;;;5012732;28;20045;-70
2022/03/06 10:51:14;;;;;;;12.10;2.10;;;23.20;99.90;;;;;;5011956;28;20441;-71
2022/03/06 10:53:41;;;;;;;13.75;2.25;;;23.20;99.90;;;;;;5005132;28;20095;-75
2022/03/06 10:56:14;;;;;;;17.52;2.35;;;23.20;99.90;;;;;;4991848;28;20014;-70
2022/03/06 10:58:43;;;;;;;16.80;2.70;;;23.20;99.90;;;;;;4992066;28;20634;-74
2022/03/06 11:01:11;;;;;;;18.65;2.45;;;23.20;99.90;;;;;;4992371;28;20105;-73
2022/03/06 11:03:40;;;;;;;17.70;2.38;;;23.10;99.90;;;;;;4991938;28;20034;-72
2022/03/06 11:06:09;;;;;;;16.40;2.47;;;23.20;99.90;;;;;;4992460;28;20045;-71
2022/03/06 11:08:39;;;;;;;15.18;2.80;;;23.20;99.90;;;;;;4992149;28;20054;-71
2022/03/06 11:11:07;;;;;;;14.15;3.33;;;23.20;99.90;;;;;;4992323;28;20049;-72
2022/03/06 11:13:36;;;;;;;17.45;2.45;;;23.20;99.90;;;;;;4992509;28;20220;-73
2022/03/06 11:16:04;;;;;;;18.17;2.63;;;23.20;99.90;;;;;;5009800;28;20025;-71
2022/03/06 11:18:32;;;;;;;15.77;2.28;;;23.30;99.90;;;;;;5009295;28;20026;-73
2022/03/06 11:21:02;;;;;;;14.32;2.03;;;23.20;99.90;;;;;;5011447;28;20028;-71
2022/03/06 11:23:39;;;;;;;17.05;2.80;;;23.30;99.90;;;;;;5010746;28;20032;-67
2022/03/06 11:26:35;;;;;;;12.07;2.35;;;23.30;99.90;;;;;;5010727;28;20053;-66
2022/03/06 11:29:41;;;;;;;17.70;3.17;;;23.30;99.90;;;;;;5010811;28;20152;-66
2022/03/06 11:32:09;;;;;;;14.98;2.58;;;23.30;99.90;;;;;;4988404;28;20082;-69
2022/03/06 11:34:39;;;;;;;12.63;2.53;;;23.30;99.90;;;;;;4988233;28;20034;-68
2022/03/06 11:37:12;;;;;;;14.30;2.17;;;23.30;99.90;;;;;;4999387;28;20034;-66
2022/03/06 11:39:39;;;;;;;12.60;2.97;;;23.30;99.90;;;;;;5009924;28;20459;-66
2022/03/06 11:42:09;;;;;;;18.38;3.47;;;23.30;99.90;;;;;;5010872;28;20022;-69
2022/03/06 11:44:50;;;;;;;18.27;3.38;;;23.30;99.90;;;;;;5010811;28;20111;-70
2022/03/06 11:47:38;;;;;;;15.32;3.47;;;23.30;99.90;;;;;;5010592;28;20026;-66
2022/03/06 11:50:06;;;;;;;15.40;3.28;;;23.30;99.90;;;;;;5010557;28;20038;-74
2022/03/06 11:52:36;;;;;;;20.48;4.20;;;23.30;99.90;;;;;;5009708;28;20100;-70
2022/03/06 11:55:32;;;;;;;21.00;3.78;;;23.30;99.90;;;;;;5007636;28;20018;-68
2022/03/06 11:58:00;;;;;;;13.82;3.88;;;23.30;99.90;;;;;;5006505;28;20121;-71
2022/03/06 12:00:33;;;;;;;17.67;4.68;;;23.20;99.90;;;;;;5013058;28;20028;-69
2022/03/06 12:03:01;;;;;;;19.48;4.75;;;23.20;99.90;;;;;;5013463;28;20045;-71
2022/03/06 12:05:53;;;;;;;20.48;4.63;;;23.10;99.90;;;;;;5013637;28;20523;-71
2022/03/06 12:08:24;;;;;;;18.40;4.17;;;23.10;99.90;;;;;;5013855;28;20067;-68
2022/03/06 12:10:52;;;;;;;19.52;4.35;;;23.10;99.90;;;;;;5014007;28;20029;-66
2022/03/06 12:13:24;;;;;;;15.77;5.10;;;23.10;99.90;;;;;;5014332;28;20037;-66
2022/03/06 12:16:10;;;;;;;17.05;4.65;;;23.00;99.90;;;;;;5013590;28;20045;-66
2022/03/06 12:18:38;;;;;;;19.60;4.75;;;23.10;99.90;;;;;;5012874;28;20034;-69
2022/03/06 12:21:19;;;;;;;22.90;4.78;;;23.00;99.90;;;;;;5013069;28;20025;-71
2022/03/06 12:23:47;;;;;;;25.08;5.63;;;23.10;99.90;;;;;;5013208;28;20022;-71
2022/03/06 12:26:34;;;;;;;24.08;6.78;;;23.10;99.90;;;;;;5013373;28;20355;-70
2022/03/06 12:29:01;;;;;;;31.13;7.85;;;23.10;99.90;;;;;;5013745;28;20036;-70
2022/03/06 12:31:35;;;;;;;33.88;7.72;;;23.10;99.90;;;;;;5013609;28;20029;-67
2022/03/06 12:34:36;;;;;;;30.40;6.82;;;23.20;99.90;;;;;;5013685;28;20105;-70
2022/03/06 12:37:04;;;;;;;38.33;6.15;;;23.20;99.90;;;;;;5013365;28;20486;-70
2022/03/06 12:39:34;;;;;;;27.17;4.97;;;23.20;99.90;;;;;;5012773;28;20044;-70
2022/03/06 12:42:01;;;;;;;29.48;5.40;;;23.20;99.90;;;;;;5013196;28;20014;-67
2022/03/06 12:44:34;;;;;;;20.55;4.45;;;23.20;99.90;;;;;;5013029;28;20092;-69
2022/03/06 12:47:02;;;;;;;28.35;6.85;;;23.20;99.90;;;;;;5012986;28;20125;-70